createdAt,value
2024-02-20T04:39:12.182Z,101139.63
2024-02-20T04:42:15.385Z,101139.63
2024-02-20T04:45:18.681Z,101138.31
2024-02-20T04:48:21.928Z,101143.44
2024-02-20T04:51:24.711Z,101140.84
2024-02-20T04:54:28.255Z,101152.25
2024-02-20T04:57:30.902Z,101146.97
2024-02-20T05:00:34.676Z,101157.34
2024-02-20T05:03:37.506Z,101151.34
2024-02-20T05:06:40.520Z,101142.41
2024-02-20T05:09:43.145Z,101137.16
2024-02-20T05:12:48.216Z,101140.72
2024-02-20T05:15:50.872Z,101149.50
2024-02-20T05:18:53.900Z,101144.28
2024-02-20T05:21:57.076Z,101153.94
2024-02-20T05:25:00.082Z,101146.13
2024-02-20T05:28:02.765Z,101152.28
2024-02-20T05:31:32.712Z,101155.53
2024-02-20T05:34:35.514Z,101161.34
2024-02-20T05:37:39.552Z,101159.56
2024-02-20T05:40:42.289Z,101158.72
2024-02-20T05:43:45.995Z,101164.91
2024-02-20T05:46:48.646Z,101176.31
2024-02-20T05:49:51.647Z,101170.25
2024-02-20T05:52:55.076Z,101172.94
2024-02-20T05:55:58.003Z,101178.03
2024-02-20T05:59:00.841Z,101180.66
2024-02-20T06:02:06.047Z,101191.97
2024-02-20T06:05:09.415Z,101191.91
2024-02-20T06:08:12.179Z,101180.56
2024-02-20T06:11:16.158Z,101191.75
2024-02-20T06:14:18.867Z,101198.47
2024-02-20T06:17:21.776Z,101199.16
2024-02-20T06:20:24.419Z,101195.59
2024-02-20T06:23:27.306Z,101205.03
2024-02-20T06:26:31.726Z,101205.69
2024-02-20T06:29:37.282Z,101203.75
2024-02-20T06:32:40.924Z,101196.56
2024-02-20T06:35:43.974Z,101203.19
2024-02-20T06:38:47.010Z,101202.87
2024-02-20T06:41:49.988Z,101203.41
2024-02-20T06:44:52.953Z,101206.75
2024-02-20T06:47:56.221Z,101199.59
2024-02-20T06:50:59.058Z,101209.87
2024-02-20T06:54:04.295Z,101217.56
2024-02-20T06:57:07.035Z,101209.25
2024-02-20T07:00:13.539Z,101213.37
2024-02-20T07:03:16.488Z,101221.06
2024-02-20T07:06:19.583Z,101211.22
2024-02-20T07:09:24.010Z,101216.50
2024-02-20T07:12:28.365Z,101222.66
2024-02-20T07:15:31.484Z,101218.97
2024-02-20T07:18:36.452Z,101224.00
2024-02-20T07:21:39.302Z,101218.53
2024-02-20T07:24:42.163Z,101220.94
2024-02-20T07:27:44.878Z,101222.31
2024-02-20T07:30:47.857Z,101225.34
2024-02-20T07:34:00.278Z,101226.13
2024-02-20T07:37:07.276Z,101219.66
2024-02-20T07:40:10.752Z,101219.00
2024-02-20T07:43:14.186Z,101223.56
2024-02-20T07:46:16.926Z,101223.28
2024-02-20T07:49:20.361Z,101220.31
2024-02-20T07:52:23.056Z,101228.88
2024-02-20T07:55:26.522Z,101236.69
2024-02-20T07:58:37.198Z,101233.69
2024-02-20T08:01:52.111Z,101235.31
2024-02-20T08:04:55.266Z,101238.28
2024-02-20T08:07:58.091Z,101229.97
2024-02-20T08:11:01.035Z,101233.31
2024-02-20T08:14:04.461Z,101230.16
2024-02-20T08:17:07.633Z,101227.13
2024-02-20T08:20:11.166Z,101231.84
2024-02-20T08:23:14.213Z,101223.91
2024-02-20T08:26:17.450Z,101236.59
2024-02-20T08:29:20.357Z,101240.84
2024-02-20T08:32:23.005Z,101238.03
2024-02-20T08:35:25.997Z,101237.37
2024-02-20T08:38:28.830Z,101242.19
2024-02-20T08:41:32.397Z,101227.00
2024-02-20T08:44:35.004Z,101244.63
2024-02-20T08:47:38.016Z,101243.47
2024-02-20T08:50:41.133Z,101242.16
2024-02-20T08:53:44.791Z,101235.84
2024-02-20T08:56:47.458Z,101243.81
2024-02-20T08:59:51.669Z,101255.13
2024-02-20T09:02:55.877Z,101257.59
2024-02-20T09:05:59.180Z,101251.75
2024-02-20T09:09:01.941Z,101253.03
2024-02-20T09:12:04.804Z,101269.19
2024-02-20T09:15:07.922Z,101268.88
2024-02-20T09:18:13.010Z,101271.25
2024-02-20T09:21:17.431Z,101280.19
2024-02-20T09:24:20.401Z,101274.59
2024-02-20T09:27:23.129Z,101278.25
2024-02-20T09:30:25.973Z,101265.75
2024-02-20T09:33:30.420Z,101273.38
2024-02-20T09:36:33.528Z,101274.28
2024-02-20T09:39:36.293Z,101271.31
2024-02-20T09:42:44.390Z,101277.81
2024-02-20T09:45:52.072Z,101280.38
2024-02-20T09:48:56.958Z,101278.75
2024-02-20T09:52:00.709Z,101285.34
2024-02-20T09:55:05.422Z,101287.19
2024-02-20T09:58:08.277Z,101283.56
2024-02-20T10:01:11.615Z,101283.25
2024-02-20T10:04:15.061Z,101290.25
2024-02-20T10:07:19.580Z,101287.09
2024-02-20T10:10:24.042Z,101288.03
2024-02-20T10:13:26.684Z,101282.88
2024-02-20T10:16:29.762Z,101278.66
2024-02-20T10:19:32.453Z,101269.19
2024-02-20T10:22:35.401Z,101261.00
2024-02-20T10:25:39.152Z,101261.09
2024-02-20T10:28:44.309Z,101260.44
2024-02-20T10:31:47.080Z,101255.75
2024-02-20T10:35:05.710Z,101266.22
2024-02-20T10:38:08.890Z,101244.72
2024-02-20T10:41:13.582Z,101247.44
2024-02-20T10:44:19.910Z,101244.41
2024-02-20T10:47:25.134Z,101241.13
2024-02-20T10:50:28.631Z,101236.94
2024-02-20T10:53:32.384Z,101241.13
2024-02-20T10:56:35.048Z,101242.19
2024-02-20T10:59:40.320Z,101232.97
2024-02-20T11:02:45.078Z,101231.44
2024-02-20T11:05:52.774Z,101223.87
2024-02-20T11:09:06.233Z,101229.38
2024-02-20T11:12:10.363Z,101225.16
2024-02-20T11:15:21.093Z,101213.53
2024-02-20T11:18:26.045Z,101213.31
2024-02-20T11:21:30.939Z,101205.00
2024-02-20T11:24:38.075Z,101196.19
2024-02-20T11:27:49.826Z,101201.34
2024-02-20T11:31:02.478Z,101200.00
2024-02-20T11:34:22.642Z,101187.06
2024-02-20T11:37:25.850Z,101180.81
2024-02-20T11:40:30.601Z,101181.47
2024-02-20T11:43:33.744Z,101181.53
2024-02-20T11:46:36.509Z,101180.38
2024-02-20T11:49:39.503Z,101174.81
2024-02-20T11:52:44.145Z,101161.53
2024-02-20T11:55:53.384Z,101162.87
2024-02-20T11:58:56.834Z,101161.16
2024-02-20T12:01:59.970Z,101161.25
2024-02-20T12:05:05.859Z,101170.09
2024-02-20T12:08:15.302Z,101165.84
2024-02-20T12:11:21.189Z,101165.00
2024-02-20T12:14:25.146Z,101155.56
2024-02-20T12:17:30.927Z,101144.47
2024-02-20T12:20:37.610Z,101151.09
2024-02-20T12:23:41.872Z,101145.72
2024-02-20T12:26:44.759Z,101144.66
2024-02-20T12:29:48.177Z,101134.03
2024-02-20T12:32:50.928Z,101140.78
2024-02-20T12:35:58.823Z,101145.87
2024-02-20T12:39:02.673Z,101143.00
2024-02-20T12:42:06.854Z,101138.22
2024-02-20T12:45:10.699Z,101133.62
2024-02-20T12:48:13.690Z,101135.41
2024-02-20T12:51:16.579Z,101134.84
2024-02-20T12:54:19.941Z,101135.69
2024-02-20T12:57:23.152Z,101131.34
2024-02-20T13:00:32.715Z,101127.06
2024-02-20T13:03:35.473Z,101126.06
2024-02-20T13:06:38.469Z,101124.69
2024-02-20T13:09:41.103Z,101129.78
2024-02-20T13:12:44.289Z,101129.59
2024-02-20T13:15:46.913Z,101130.41
2024-02-20T13:18:50.125Z,101131.66
2024-02-20T13:21:52.711Z,101131.34
2024-02-20T13:24:55.987Z,101128.87
2024-02-20T13:28:00.607Z,101117.56
2024-02-20T13:31:04.061Z,101125.88
2024-02-20T13:34:06.856Z,101120.22
2024-02-20T13:37:09.874Z,101128.75
2024-02-20T13:40:13.673Z,101127.25
2024-02-20T13:43:16.591Z,101118.03
2024-02-20T13:46:19.419Z,101125.59
2024-02-20T13:49:26.692Z,101114.53
2024-02-20T13:52:29.472Z,101111.28
2024-02-20T13:55:32.669Z,101108.75
2024-02-20T13:58:35.484Z,101105.78
2024-02-20T14:01:41.855Z,101111.06
2024-02-20T14:04:45.924Z,101114.78
2024-02-20T14:07:48.797Z,101110.88
2024-02-20T14:10:52.110Z,101109.09
2024-02-20T14:13:57.417Z,101110.94
2024-02-20T14:17:00.808Z,101103.12
2024-02-20T14:20:08.671Z,101108.41
2024-02-20T14:23:11.688Z,101105.31
2024-02-20T14:26:14.429Z,101098.22
2024-02-20T14:29:22.285Z,101105.13
2024-02-20T14:32:26.932Z,101104.50
2024-02-20T14:35:29.927Z,101107.16
2024-02-20T14:38:32.843Z,101104.81
2024-02-20T14:41:35.835Z,101102.25
2024-02-20T14:44:38.539Z,101108.00
2024-02-20T14:47:41.535Z,101109.56
2024-02-20T14:50:44.797Z,101100.00
2024-02-20T14:53:48.323Z,101109.94
2024-02-20T14:56:51.085Z,101105.84
2024-02-20T14:59:54.078Z,101098.37
2024-02-20T15:02:57.394Z,101102.28
2024-02-20T15:06:00.689Z,101109.72
2024-02-20T15:09:04.407Z,101109.16
2024-02-20T15:12:22.072Z,101110.84
2024-02-20T15:15:24.747Z,101105.31
2024-02-20T15:18:31.480Z,101112.03
2024-02-20T15:21:35.761Z,101107.94
2024-02-20T15:24:38.613Z,101107.13
2024-02-20T15:27:41.185Z,101107.03
2024-02-20T15:30:44.004Z,101107.87
2024-02-20T15:33:46.818Z,101109.81
2024-02-20T15:36:49.894Z,101117.28
2024-02-20T15:39:53.298Z,101112.19
2024-02-20T15:42:57.941Z,101117.19
2024-02-20T15:46:01.081Z,101122.38
2024-02-20T15:49:04.006Z,101118.47
2024-02-20T15:52:06.876Z,101119.84
2024-02-20T15:55:12.001Z,101129.28
2024-02-20T15:58:16.467Z,101131.06
2024-02-20T16:01:22.034Z,101124.84
2024-02-20T16:04:25.672Z,101126.41
2024-02-20T16:07:28.228Z,101128.22
2024-02-20T16:10:31.185Z,101127.53
2024-02-20T16:13:33.849Z,101135.34
2024-02-20T16:16:36.963Z,101138.28
2024-02-20T16:19:39.658Z,101140.50
2024-02-20T16:22:43.800Z,101145.13
2024-02-20T16:25:46.317Z,101145.97
2024-02-20T16:28:55.369Z,101142.91
